sensor_id;sensor_type;location;lat;lon;timestamp;pressure;altitude;pressure_sealevel;temperature;humidity
83248;BME280;73465;51.038;7.052;2024-01-25T00:00:23;101965.06;;;8.64;73.03
83248;BME280;73465;51.038;7.052;2024-01-25T00:02:48;101963.28;;;8.65;72.82
83248;BME280;73465;51.038;7.052;2024-01-25T00:05:17;101926.94;;;8.40;73.16
83248;BME280;73465;51.038;7.052;2024-01-25T00:07:49;101929.56;;;8.40;73.76
83248;BME280;73465;51.038;7.052;2024-01-25T00:10:16;101971.31;;;8.57;73.54
83248;BME280;73465;51.038;7.052;2024-01-25T00:12:42;101956.47;;;8.53;73.58
83248;BME280;73465;51.038;7.052;2024-01-25T00:15:10;101940.94;;;8.39;73.43
83248;BME280;73465;51.038;7.052;2024-01-25T00:17:36;101943.53;;;8.41;73.26
83248;BME280;73465;51.038;7.052;2024-01-25T00:20:03;101983.44;;;8.64;73.38
83248;BME280;73465;51.038;7.052;2024-01-25T00:22:28;101920.97;;;8.30;73.67
83248;BME280;73465;51.038;7.052;2024-01-25T00:24:54;101982.53;;;8.67;73.58
83248;BME280;73465;51.038;7.052;2024-01-25T00:27:19;101980.81;;;8.63;73.32
83248;BME280;73465;51.038;7.052;2024-01-25T00:29:44;101944.31;;;8.46;73.65
83248;BME280;73465;51.038;7.052;2024-01-25T00:32:10;101985.97;;;8.69;73.72
83248;BME280;73465;51.038;7.052;2024-01-25T00:34:36;101970.38;;;8.60;73.87
83248;BME280;73465;51.038;7.052;2024-01-25T00:37:01;101956.47;;;8.53;73.68
83248;BME280;73465;51.038;7.052;2024-01-25T00:39:27;101972.13;;;8.61;73.58
83248;BME280;73465;51.038;7.052;2024-01-25T00:42:03;101976.41;;;8.65;73.76
83248;BME280;73465;51.038;7.052;2024-01-25T00:44:33;101986.84;;;8.70;73.73
83248;BME280;73465;51.038;7.052;2024-01-25T00:46:59;101976.56;;;8.56;73.48
83248;BME280;73465;51.038;7.052;2024-01-25T00:49:24;101956.44;;;8.56;73.68
83248;BME280;73465;51.038;7.052;2024-01-25T00:51:59;101961.78;;;8.48;73.63
83248;BME280;73465;51.038;7.052;2024-01-25T00:54:27;101994.72;;;8.68;73.65
83248;BME280;73465;51.038;7.052;2024-01-25T00:56:53;102000.91;;;8.65;74.34
83248;BME280;73465;51.038;7.052;2024-01-25T00:59:19;101976.44;;;8.63;73.66
83248;BME280;73465;51.038;7.052;2024-01-25T01:01:53;101984.22;;;8.70;73.64
83248;BME280;73465;51.038;7.052;2024-01-25T01:04:20;102000.91;;;8.65;73.39
83248;BME280;73465;51.038;7.052;2024-01-25T01:06:46;101971.47;;;8.46;74.03
83248;BME280;73465;51.038;7.052;2024-01-25T01:09:13;101976.44;;;8.63;73.15
83248;BME280;73465;51.038;7.052;2024-01-25T01:11:39;101919.19;;;8.31;73.49
83248;BME280;73465;51.038;7.052;2024-01-25T01:14:04;101971.47;;;8.45;73.29
83248;BME280;73465;51.038;7.052;2024-01-25T01:16:30;101988.22;;;8.38;74.05
83248;BME280;73465;51.038;7.052;2024-01-25T01:18:58;102012.59;;;8.47;74.08
83248;BME280;73465;51.038;7.052;2024-01-25T01:21:33;101989.22;;;8.27;74.30
83248;BME280;73465;51.038;7.052;2024-01-25T01:24:01;102010.06;;;8.38;74.42
83248;BME280;73465;51.038;7.052;2024-01-25T01:26:27;102003.19;;;8.29;74.65
83248;BME280;73465;51.038;7.052;2024-01-25T01:28:52;101992.91;;;8.14;74.74
83248;BME280;73465;51.038;7.052;2024-01-25T01:31:19;101987.72;;;8.09;74.39
83248;BME280;73465;51.038;7.052;2024-01-25T01:33:44;101972.25;;;7.91;74.99
83248;BME280;73465;51.038;7.052;2024-01-25T01:36:09;102000.16;;;7.96;75.57
83248;BME280;73465;51.038;7.052;2024-01-25T01:38:35;101984.53;;;7.90;74.95
83248;BME280;73465;51.038;7.052;2024-01-25T01:41:01;101972.50;;;7.75;75.15
83248;BME280;73465;51.038;7.052;2024-01-25T01:43:26;101930.91;;;7.47;75.71
83248;BME280;73465;51.038;7.052;2024-01-25T01:45:53;102015.09;;;7.90;76.31
83248;BME280;73465;51.038;7.052;2024-01-25T01:48:21;101929.28;;;7.38;75.92
83248;BME280;73465;51.038;7.052;2024-01-25T01:50:47;102014.34;;;7.83;75.99
83248;BME280;73465;51.038;7.052;2024-01-25T01:53:13;102013.47;;;7.81;76.38
83248;BME280;73465;51.038;7.052;2024-01-25T01:55:41;101971.97;;;7.45;76.67
83248;BME280;73465;51.038;7.052;2024-01-25T01:58:07;102014.47;;;7.72;76.00
83248;BME280;73465;51.038;7.052;2024-01-25T02:00:34;101976.34;;;7.46;76.30
83248;BME280;73465;51.038;7.052;2024-01-25T02:02:59;101977.25;;;7.41;76.56
83248;BME280;73465;51.038;7.052;2024-01-25T02:05:25;101946.91;;;7.24;76.53
83248;BME280;73465;51.038;7.052;2024-01-25T02:07:51;101940.97;;;7.08;76.39
83248;BME280;73465;51.038;7.052;2024-01-25T02:10:17;101978.25;;;7.32;76.53
83248;BME280;73465;51.038;7.052;2024-01-25T02:12:51;101983.56;;;7.26;76.62
83248;BME280;73465;51.038;7.052;2024-01-25T02:15:17;102024.38;;;7.47;76.52
83248;BME280;73465;51.038;7.052;2024-01-25T02:17:42;101961.91;;;7.10;77.16
83248;BME280;73465;51.038;7.052;2024-01-25T02:20:08;101960.22;;;7.05;76.77
83248;BME280;73465;51.038;7.052;2024-01-25T02:22:34;102044.38;;;7.54;77.25
83248;BME280;73465;51.038;7.052;2024-01-25T02:25:00;101974.94;;;7.17;76.79
83248;BME280;73465;51.038;7.052;2024-01-25T02:27:26;101981.75;;;7.32;75.91
83248;BME280;73465;51.038;7.052;2024-01-25T02:29:52;102075.44;;;7.91;76.26
83248;BME280;73465;51.038;7.052;2024-01-25T02:32:18;102038.13;;;7.69;75.47
83248;BME280;73465;51.038;7.052;2024-01-25T02:34:46;102025.69;;;7.85;74.92
83248;BME280;73465;51.038;7.052;2024-01-25T02:37:12;102038.78;;;7.83;75.23
83248;BME280;73465;51.038;7.052;2024-01-25T02:39:39;102057.75;;;8.04;75.09
83248;BME280;73465;51.038;7.052;2024-01-25T02:42:07;102067.34;;;8.07;74.76
83248;BME280;73465;51.038;7.052;2024-01-25T02:44:33;102057.81;;;8.01;75.01
83248;BME280;73465;51.038;7.052;2024-01-25T02:46:58;102062.22;;;7.99;74.53
83248;BME280;73465;51.038;7.052;2024-01-25T02:49:26;102069.06;;;8.11;74.88
83248;BME280;73465;51.038;7.052;2024-01-25T02:51:51;102066.44;;;8.09;74.69
83248;BME280;73465;51.038;7.052;2024-01-25T02:54:17;102024.72;;;7.91;74.55
83248;BME280;73465;51.038;7.052;2024-01-25T02:56:42;102019.47;;;7.92;74.35
83248;BME280;73465;51.038;7.052;2024-01-25T02:59:10;102027.25;;;7.98;74.04
83248;BME280;73465;51.038;7.052;2024-01-25T03:01:40;102040.22;;;8.08;74.59
83248;BME280;73465;51.038;7.052;2024-01-25T03:04:12;102041.09;;;8.10;74.45
83248;BME280;73465;51.038;7.052;2024-01-25T03:06:42;102021.13;;;7.98;73.97
83248;BME280;73465;51.038;7.052;2024-01-25T03:09:08;102038.44;;;8.11;74.24
83248;BME280;73465;51.038;7.052;2024-01-25T03:11:33;102020.25;;;7.99;74.44
83248;BME280;73465;51.038;7.052;2024-01-25T03:13:59;102012.56;;;7.85;74.72
83248;BME280;73465;51.038;7.052;2024-01-25T03:16:25;101985.63;;;7.72;74.77
83248;BME280;73465;51.038;7.052;2024-01-25T03:18:50;101992.59;;;7.76;75.27
83248;BME280;73465;51.038;7.052;2024-01-25T03:21:17;101977.88;;;7.64;75.66
83248;BME280;73465;51.038;7.052;2024-01-25T03:23:43;102007.50;;;7.69;76.14
83248;BME280;73465;51.038;7.052;2024-01-25T03:26:08;102046.59;;;7.91;76.25
83248;BME280;73465;51.038;7.052;2024-01-25T03:28:37;101990.31;;;7.47;77.14
83248;BME280;73465;51.038;7.052;2024-01-25T03:31:04;102061.63;;;7.74;76.99
83248;BME280;73465;51.038;7.052;2024-01-25T03:33:30;102043.38;;;7.66;76.47
83248;BME280;73465;51.038;7.052;2024-01-25T03:36:04;102027.00;;;7.47;77.24
83248;BME280;73465;51.038;7.052;2024-01-25T03:38:30;101981.03;;;7.15;76.56
83248;BME280;73465;51.038;7.052;2024-01-25T03:40:56;102048.84;;;7.46;77.17
83248;BME280;73465;51.038;7.052;2024-01-25T03:43:26;102074.97;;;7.53;77.66
83248;BME280;73465;51.038;7.052;2024-01-25T03:45:54;102059.38;;;7.41;76.91
83248;BME280;73465;51.038;7.052;2024-01-25T03:48:19;102072.44;;;7.46;76.87
83248;BME280;73465;51.038;7.052;2024-01-25T03:50:45;102037.72;;;7.22;77.21
83248;BME280;73465;51.038;7.052;2024-01-25T03:53:11;102088.09;;;7.52;77.38
83248;BME280;73465;51.038;7.052;2024-01-25T03:55:37;102004.69;;;7.10;77.11
83248;BME280;73465;51.038;7.052;2024-01-25T03:58:02;102043.78;;;7.29;77.08
83248;BME280;73465;51.038;7.052;2024-01-25T04:00:28;102080.28;;;7.44;77.58
83248;BME280;73465;51.038;7.052;2024-01-25T04:02:54;102016.16;;;6.97;76.93
83248;BME280;73465;51.038;7.052;2024-01-25T04:05:19;102043.22;;;6.97;77.58
83248;BME280;73465;51.038;7.052;2024-01-25T04:07:45;102027.59;;;6.85;77.50
83248;BME280;73465;51.038;7.052;2024-01-25T04:10:10;102098.84;;;7.24;77.51
83248;BME280;73465;51.038;7.052;2024-01-25T04:12:40;102087.53;;;7.20;77.74
83248;BME280;73465;51.038;7.052;2024-01-25T04:15:08;102022.53;;;6.66;78.24
83248;BME280;73465;51.038;7.052;2024-01-25T04:17:36;102096.34;;;7.09;78.52
83248;BME280;73465;51.038;7.052;2024-01-25T04:20:02;102017.41;;;6.54;78.60
83248;BME280;73465;51.038;7.052;2024-01-25T04:22:28;102049.53;;;6.70;78.52
83248;BME280;73465;51.038;7.052;2024-01-25T04:24:53;102064.44;;;6.60;79.51
83248;BME280;73465;51.038;7.052;2024-01-25T04:27:19;102113.06;;;6.94;79.22
83248;BME280;73465;51.038;7.052;2024-01-25T04:29:45;102109.59;;;6.90;79.53
83248;BME280;73465;51.038;7.052;2024-01-25T04:32:12;102090.50;;;6.74;79.88
83248;BME280;73465;51.038;7.052;2024-01-25T04:34:37;102108.88;;;6.71;79.97
83248;BME280;73465;51.038;7.052;2024-01-25T04:37:03;102096.69;;;6.64;79.57
83248;BME280;73465;51.038;7.052;2024-01-25T04:39:28;102116.72;;;6.72;80.19
83248;BME280;73465;51.038;7.052;2024-01-25T04:41:54;102115.88;;;6.64;79.70
83248;BME280;73465;51.038;7.052;2024-01-25T04:44:19;102110.72;;;6.56;80.81
83248;BME280;73465;51.038;7.052;2024-01-25T04:46:44;102111.59;;;6.54;81.17
83248;BME280;73465;51.038;7.052;2024-01-25T04:49:10;102084.66;;;6.38;81.13
83248;BME280;73465;51.038;7.052;2024-01-25T04:51:35;102087.28;;;6.33;80.87
83248;BME280;73465;51.038;7.052;2024-01-25T04:54:01;102089.88;;;6.39;81.13
83248;BME280;73465;51.038;7.052;2024-01-25T04:56:26;102090.78;;;6.28;81.29
83248;BME280;73465;51.038;7.052;2024-01-25T04:58:52;102099.56;;;6.22;81.06
83248;BME280;73465;51.038;7.052;2024-01-25T05:01:17;102101.38;;;6.07;81.64
83248;BME280;73465;51.038;7.052;2024-01-25T05:03:42;102111.84;;;6.06;81.74
83248;BME280;73465;51.038;7.052;2024-01-25T05:06:07;102113.59;;;5.96;81.36
83248;BME280;73465;51.038;7.052;2024-01-25T05:08:33;102117.13;;;5.83;81.57
83248;BME280;73465;51.038;7.052;2024-01-25T05:10:58;102106.69;;;5.58;82.02
83248;BME280;73465;51.038;7.052;2024-01-25T05:13:24;102111.94;;;5.56;81.96
83248;BME280;73465;51.038;7.052;2024-01-25T05:15:49;102109.34;;;5.50;81.99
83248;BME280;73465;51.038;7.052;2024-01-25T05:18:15;102106.72;;;5.50;82.30
83248;BME280;73465;51.038;7.052;2024-01-25T05:20:40;102089.31;;;5.32;81.89
83248;BME280;73465;51.038;7.052;2024-01-25T05:23:05;102115.44;;;5.38;82.31
83248;BME280;73465;51.038;7.052;2024-01-25T05:25:31;102091.09;;;5.16;82.64
83248;BME280;73465;51.038;7.052;2024-01-25T05:27:56;102105.88;;;5.11;82.12
83248;BME280;73465;51.038;7.052;2024-01-25T05:30:23;102104.16;;;5.01;82.26
83248;BME280;73465;51.038;7.052;2024-01-25T05:32:48;102115.44;;;5.24;83.85
83248;BME280;73465;51.038;7.052;2024-01-25T05:35:15;102091.97;;;5.17;83.14
83248;BME280;73465;51.038;7.052;2024-01-25T05:37:40;102111.13;;;5.14;82.91
83248;BME280;73465;51.038;7.052;2024-01-25T05:40:06;102088.47;;;4.87;82.97
83248;BME280;73465;51.038;7.052;2024-01-25T05:42:31;102100.66;;;4.88;83.32
83248;BME280;73465;51.038;7.052;2024-01-25T05:44:57;102098.03;;;4.81;83.11
83248;BME280;73465;51.038;7.052;2024-01-25T05:47:23;102083.25;;;4.77;83.60
83248;BME280;73465;51.038;7.052;2024-01-25T05:49:48;102096.31;;;4.71;83.25
83248;BME280;73465;51.038;7.052;2024-01-25T05:52:13;102091.06;;;4.53;83.46
83248;BME280;73465;51.038;7.052;2024-01-25T05:54:39;102088.41;;;4.37;82.94
83248;BME280;73465;51.038;7.052;2024-01-25T05:57:06;102097.94;;;4.26;83.14
83248;BME280;73465;51.038;7.052;2024-01-25T05:59:31;102110.09;;;4.21;83.22
83248;BME280;73465;51.038;7.052;2024-01-25T06:01:57;102125.66;;;4.08;83.30
83248;BME280;73465;51.038;7.052;2024-01-25T06:04:22;102107.38;;;3.91;83.33
83248;BME280;73465;51.038;7.052;2024-01-25T06:06:47;102137.84;;;4.06;84.17
83248;BME280;73465;51.038;7.052;2024-01-25T06:09:13;102132.53;;;3.91;83.61
83248;BME280;73465;51.038;7.052;2024-01-25T06:11:43;102112.50;;;3.80;83.63
83248;BME280;73465;51.038;7.052;2024-01-25T06:14:09;102142.94;;;3.89;84.11
83248;BME280;73465;51.038;7.052;2024-01-25T06:16:34;102133.41;;;3.96;84.11
83248;BME280;73465;51.038;7.052;2024-01-25T06:19:00;102105.53;;;3.72;83.47
83248;BME280;73465;51.038;7.052;2024-01-25T06:21:26;102124.63;;;3.72;83.39
83248;BME280;73465;51.038;7.052;2024-01-25T06:23:52;102128.03;;;3.66;83.83
83248;BME280;73465;51.038;7.052;2024-01-25T06:26:17;102141.97;;;3.67;83.80
83248;BME280;73465;51.038;7.052;2024-01-25T06:28:43;102153.19;;;3.60;84.12
83248;BME280;73465;51.038;7.052;2024-01-25T06:31:08;102141.84;;;3.50;84.31
83248;BME280;73465;51.038;7.052;2024-01-25T06:33:33;102142.66;;;3.44;83.91
83248;BME280;73465;51.038;7.052;2024-01-25T06:35:59;102147.84;;;3.41;84.07
83248;BME280;73465;51.038;7.052;2024-01-25T06:38:25;102130.34;;;3.25;83.97
83248;BME280;73465;51.038;7.052;2024-01-25T06:40:50;102151.97;;;3.17;83.97
83248;BME280;73465;51.038;7.052;2024-01-25T06:43:16;102151.09;;;3.12;84.03
83248;BME280;73465;51.038;7.052;2024-01-25T06:45:41;102134.53;;;3.04;84.37
83248;BME280;73465;51.038;7.052;2024-01-25T06:48:07;102175.44;;;3.20;84.46
83248;BME280;73465;51.038;7.052;2024-01-25T06:50:33;102166.69;;;3.12;84.01
83248;BME280;73465;51.038;7.052;2024-01-25T06:52:59;102160.59;;;3.07;84.65
83248;BME280;73465;51.038;7.052;2024-01-25T06:55:24;102185.66;;;2.99;85.47
83248;BME280;73465;51.038;7.052;2024-01-25T06:57:49;102169.97;;;2.89;84.77
83248;BME280;73465;51.038;7.052;2024-01-25T07:00:15;102183.88;;;2.95;84.74
83248;BME280;73465;51.038;7.052;2024-01-25T07:02:41;102199.50;;;2.96;84.37
83248;BME280;73465;51.038;7.052;2024-01-25T07:05:07;102188.06;;;2.77;85.24
83248;BME280;73465;51.038;7.052;2024-01-25T07:07:33;102181.13;;;2.81;84.95
83248;BME280;73465;51.038;7.052;2024-01-25T07:09:58;102200.47;;;3.06;85.15
83248;BME280;73465;51.038;7.052;2024-01-25T07:12:24;102191.72;;;2.98;84.42
83248;BME280;73465;51.038;7.052;2024-01-25T07:14:49;102167.31;;;2.86;84.47
83248;BME280;73465;51.038;7.052;2024-01-25T07:17:14;102159.44;;;2.77;84.58
83248;BME280;73465;51.038;7.052;2024-01-25T07:19:40;102201.31;;;3.02;84.71
83248;BME280;73465;51.038;7.052;2024-01-25T07:22:05;102196.94;;;2.99;85.27
83248;BME280;73465;51.038;7.052;2024-01-25T07:24:31;102188.97;;;2.85;85.11
83248;BME280;73465;51.038;7.052;2024-01-25T07:26:56;102211.66;;;2.96;85.01
83248;BME280;73465;51.038;7.052;2024-01-25T07:29:22;102201.22;;;2.94;84.76
83248;BME280;73465;51.038;7.052;2024-01-25T07:31:47;102206.38;;;2.89;84.94
83248;BME280;73465;51.038;7.052;2024-01-25T07:34:13;102211.69;;;3.00;85.14
83248;BME280;73465;51.038;7.052;2024-01-25T07:36:38;102180.31;;;2.83;84.70
83248;BME280;73465;51.038;7.052;2024-01-25T07:39:04;102199.50;;;2.98;85.02
83248;BME280;73465;51.038;7.052;2024-01-25T07:41:29;102202.97;;;2.95;84.63
83248;BME280;73465;51.038;7.052;2024-01-25T07:43:55;102204.66;;;2.90;85.25
83248;BME280;73465;51.038;7.052;2024-01-25T07:46:21;102200.34;;;2.95;84.39
83248;BME280;73465;51.038;7.052;2024-01-25T07:48:47;102207.34;;;2.99;84.32
83248;BME280;73465;51.038;7.052;2024-01-25T07:51:14;102203.00;;;3.00;84.56
83248;BME280;73465;51.038;7.052;2024-01-25T07:53:40;102218.75;;;3.11;84.67
83248;BME280;73465;51.038;7.052;2024-01-25T07:56:08;102210.19;;;3.26;84.63
83248;BME280;73465;51.038;7.052;2024-01-25T07:58:35;102220.66;;;3.29;84.84
83248;BME280;73465;51.038;7.052;2024-01-25T08:01:03;102209.28;;;3.20;84.12
83248;BME280;73465;51.038;7.052;2024-01-25T08:03:29;102227.66;;;3.36;84.18
83248;BME280;73465;51.038;7.052;2024-01-25T08:05:54;102191.88;;;3.12;83.63
83248;BME280;73465;51.038;7.052;2024-01-25T08:08:20;102218.06;;;3.33;83.26
83248;BME280;73465;51.038;7.052;2024-01-25T08:10:45;102219.88;;;3.39;83.89
83248;BME280;73465;51.038;7.052;2024-01-25T08:13:11;102227.78;;;3.51;83.39
83248;BME280;73465;51.038;7.052;2024-01-25T08:15:36;102216.41;;;3.42;82.97
83248;BME280;73465;51.038;7.052;2024-01-25T08:18:02;102199.88;;;3.35;83.14
83248;BME280;73465;51.038;7.052;2024-01-25T08:20:27;102223.56;;;3.67;83.18
83248;BME280;73465;51.038;7.052;2024-01-25T08:22:53;102213.19;;;3.72;82.64
83248;BME280;73465;51.038;7.052;2024-01-25T08:25:18;102221.09;;;3.81;82.81
83248;BME280;73465;51.038;7.052;2024-01-25T08:27:45;102217.63;;;3.89;83.11
83248;BME280;73465;51.038;7.052;2024-01-25T08:30:11;102210.84;;;4.12;82.48
83248;BME280;73465;51.038;7.052;2024-01-25T08:32:36;102196.03;;;4.07;82.29
83248;BME280;73465;51.038;7.052;2024-01-25T08:35:01;102204.81;;;4.24;82.35
83248;BME280;73465;51.038;7.052;2024-01-25T08:37:27;102199.66;;;4.41;82.14
83248;BME280;73465;51.038;7.052;2024-01-25T08:39:52;102187.53;;;4.48;81.94
83248;BME280;73465;51.038;7.052;2024-01-25T08:42:18;102170.22;;;4.64;81.87
83248;BME280;73465;51.038;7.052;2024-01-25T08:44:43;102186.81;;;4.91;81.16
83248;BME280;73465;51.038;7.052;2024-01-25T08:47:17;102214.69;;;5.17;80.98
83248;BME280;73465;51.038;7.052;2024-01-25T08:49:42;102179.00;;;5.09;80.91
83248;BME280;73465;51.038;7.052;2024-01-25T08:52:08;102193.81;;;5.35;80.25
83248;BME280;73465;51.038;7.052;2024-01-25T08:54:33;102193.81;;;5.51;80.93
83248;BME280;73465;51.038;7.052;2024-01-25T08:56:59;102214.66;;;5.85;79.67
83248;BME280;73465;51.038;7.052;2024-01-25T08:59:24;102187.69;;;5.83;78.73
83248;BME280;73465;51.038;7.052;2024-01-25T09:01:50;102211.16;;;6.10;78.90
83248;BME280;73465;51.038;7.052;2024-01-25T09:04:15;102185.91;;;6.08;79.19
83248;BME280;73465;51.038;7.052;2024-01-25T09:06:44;102194.53;;;6.38;78.72
83248;BME280;73465;51.038;7.052;2024-01-25T09:09:09;102206.66;;;6.59;78.75
83248;BME280;73465;51.038;7.052;2024-01-25T09:11:36;102191.72;;;6.80;79.29
83248;BME280;73465;51.038;7.052;2024-01-25T09:14:01;102195.16;;;6.89;78.56
83248;BME280;73465;51.038;7.052;2024-01-25T09:16:27;102214.22;;;7.09;78.87
83248;BME280;73465;51.038;7.052;2024-01-25T09:18:52;102215.03;;;7.18;78.44
83248;BME280;73465;51.038;7.052;2024-01-25T09:21:19;102189.72;;;7.17;78.38
83248;BME280;73465;51.038;7.052;2024-01-25T09:23:44;102204.44;;;7.37;78.25
83248;BME280;73465;51.038;7.052;2024-01-25T09:26:10;102213.09;;;7.47;77.76
83248;BME280;73465;51.038;7.052;2024-01-25T09:28:35;102220.94;;;7.47;77.27
83248;BME280;73465;51.038;7.052;2024-01-25T09:31:00;102218.19;;;7.61;77.43
83248;BME280;73465;51.038;7.052;2024-01-25T09:33:26;102221.59;;;7.72;77.30
83248;BME280;73465;51.038;7.052;2024-01-25T09:35:51;102221.97;;;8.19;76.50
83248;BME280;73465;51.038;7.052;2024-01-25T09:38:18;102216.97;;;8.75;75.06
83248;BME280;73465;51.038;7.052;2024-01-25T09:40:45;102241.53;;;9.34;73.59
83248;BME280;73465;51.038;7.052;2024-01-25T09:43:11;102229.59;;;9.69;71.97
83248;BME280;73465;51.038;7.052;2024-01-25T09:45:37;102221.25;;;9.93;69.56
83248;BME280;73465;51.038;7.052;2024-01-25T09:48:03;102215.78;;;10.03;69.68
83248;BME280;73465;51.038;7.052;2024-01-25T09:50:30;102222.78;;;10.51;66.91
83248;BME280;73465;51.038;7.052;2024-01-25T09:52:59;102214.72;;;10.58;67.07
83248;BME280;73465;51.038;7.052;2024-01-25T09:55:25;102229.00;;;10.47;67.84
83248;BME280;73465;51.038;7.052;2024-01-25T09:57:53;102234.09;;;10.10;68.04
83248;BME280;73465;51.038;7.052;2024-01-25T10:00:23;102240.59;;;9.91;68.92
83248;BME280;73465;51.038;7.052;2024-01-25T10:02:49;102236.13;;;9.43;69.67
83248;BME280;73465;51.038;7.052;2024-01-25T10:05:16;102210.94;;;9.29;70.60
83248;BME280;73465;51.038;7.052;2024-01-25T10:07:43;102226.88;;;9.19;70.43
83248;BME280;73465;51.038;7.052;2024-01-25T10:10:11;102232.94;;;9.22;70.99
83248;BME280;73465;51.038;7.052;2024-01-25T10:12:37;102260.38;;;9.62;70.31
83248;BME280;73465;51.038;7.052;2024-01-25T10:15:04;102242.91;;;9.56;69.31
83248;BME280;73465;51.038;7.052;2024-01-25T10:17:30;102251.44;;;9.16;70.59
83248;BME280;73465;51.038;7.052;2024-01-25T10:19:57;102250.78;;;8.98;71.23
83248;BME280;73465;51.038;7.052;2024-01-25T10:22:23;102244.66;;;8.99;71.05
83248;BME280;73465;51.038;7.052;2024-01-25T10:24:48;102246.72;;;9.38;70.84
83248;BME280;73465;51.038;7.052;2024-01-25T10:27:18;102254.78;;;9.27;71.00
83248;BME280;73465;51.038;7.052;2024-01-25T10:29:44;102234.91;;;9.08;70.70
83248;BME280;73465;51.038;7.052;2024-01-25T10:32:09;102239.66;;;8.81;72.23
83248;BME280;73465;51.038;7.052;2024-01-25T10:34:39;102211.44;;;8.95;71.56
83248;BME280;73465;51.038;7.052;2024-01-25T10:37:06;102224.31;;;9.14;71.36
83248;BME280;73465;51.038;7.052;2024-01-25T10:39:32;102195.63;;;9.00;70.93
83248;BME280;73465;51.038;7.052;2024-01-25T10:41:59;102214.84;;;9.02;70.97
83248;BME280;73465;51.038;7.052;2024-01-25T10:44:27;102232.38;;;9.56;70.04
83248;BME280;73465;51.038;7.052;2024-01-25T10:46:52;102220.91;;;9.62;69.38
83248;BME280;73465;51.038;7.052;2024-01-25T10:49:19;102206.53;;;9.30;69.76
83248;BME280;73465;51.038;7.052;2024-01-25T10:51:45;102228.06;;;9.55;69.72
83248;BME280;73465;51.038;7.052;2024-01-25T10:54:12;102193.34;;;9.33;68.87
83248;BME280;73465;51.038;7.052;2024-01-25T10:56:46;102203.03;;;9.83;68.93
83248;BME280;73465;51.038;7.052;2024-01-25T10:59:16;102191.88;;;9.68;68.80
83248;BME280;73465;51.038;7.052;2024-01-25T11:01:44;102175.97;;;9.74;68.81
83248;BME280;73465;51.038;7.052;2024-01-25T11:04:17;102182.91;;;9.80;68.62
83248;BME280;73465;51.038;7.052;2024-01-25T11:06:47;102179.06;;;9.96;67.71
83248;BME280;73465;51.038;7.052;2024-01-25T11:09:18;102158.78;;;10.02;67.37
83248;BME280;73465;51.038;7.052;2024-01-25T11:11:46;102173.81;;;10.42;66.10
83248;BME280;73465;51.038;7.052;2024-01-25T11:14:13;102157.44;;;10.68;65.04
83248;BME280;73465;51.038;7.052;2024-01-25T11:16:39;102166.28;;;11.05;64.66
83248;BME280;73465;51.038;7.052;2024-01-25T11:19:16;102160.06;;;11.06;63.96
83248;BME280;73465;51.038;7.052;2024-01-25T11:24:20;102163.72;;;12.04;62.49
83248;BME280;73465;51.038;7.052;2024-01-25T11:26:49;102145.94;;;12.41;60.85
83248;BME280;73465;51.038;7.052;2024-01-25T11:29:19;102150.31;;;12.72;59.59
83248;BME280;73465;51.038;7.052;2024-01-25T11:31:46;102156.06;;;12.26;59.76
83248;BME280;73465;51.038;7.052;2024-01-25T11:34:12;102133.50;;;12.14;59.85
83248;BME280;73465;51.038;7.052;2024-01-25T11:36:38;102139.16;;;12.32;59.21
83248;BME280;73465;51.038;7.052;2024-01-25T11:39:04;102150.25;;;12.13;59.06
83248;BME280;73465;51.038;7.052;2024-01-25T11:41:33;102142.63;;;11.71;59.79
83248;BME280;73465;51.038;7.052;2024-01-25T11:43:59;102134.28;;;11.53;59.93
83248;BME280;73465;51.038;7.052;2024-01-25T11:46:24;102125.06;;;11.70;60.46
83248;BME280;73465;51.038;7.052;2024-01-25T11:48:51;102126.53;;;11.47;59.56
83248;BME280;73465;51.038;7.052;2024-01-25T11:51:16;102119.69;;;11.40;60.04
83248;BME280;73465;51.038;7.052;2024-01-25T11:53:42;102130.78;;;11.53;59.62
83248;BME280;73465;51.038;7.052;2024-01-25T11:56:10;102107.09;;;11.51;59.06
83248;BME280;73465;51.038;7.052;2024-01-25T11:58:38;102123.53;;;11.61;59.34
83248;BME280;73465;51.038;7.052;2024-01-25T12:01:05;102139.75;;;11.79;58.73
83248;BME280;73465;51.038;7.052;2024-01-25T12:03:34;102130.41;;;11.67;59.17
83248;BME280;73465;51.038;7.052;2024-01-25T12:06:00;102115.63;;;11.93;58.84
83248;BME280;73465;51.038;7.052;2024-01-25T12:08:26;102115.06;;;11.81;58.45
83248;BME280;73465;51.038;7.052;2024-01-25T12:11:05;102118.94;;;11.68;57.77
83248;BME280;73465;51.038;7.052;2024-01-25T12:13:40;102114.00;;;11.55;57.92
83248;BME280;73465;51.038;7.052;2024-01-25T12:16:07;102113.28;;;11.49;58.51
83248;BME280;73465;51.038;7.052;2024-01-25T12:18:33;102109.75;;;11.15;59.43
83248;BME280;73465;51.038;7.052;2024-01-25T12:21:02;102101.53;;;11.28;58.91
83248;BME280;73465;51.038;7.052;2024-01-25T12:23:38;102094.53;;;11.60;58.71
83248;BME280;73465;51.038;7.052;2024-01-25T12:26:07;102080.94;;;11.42;59.25
83248;BME280;73465;51.038;7.052;2024-01-25T12:28:33;102065.03;;;11.45;58.19
83248;BME280;73465;51.038;7.052;2024-01-25T12:31:03;102092.44;;;11.72;57.64
83248;BME280;73465;51.038;7.052;2024-01-25T12:33:29;102084.41;;;11.76;58.15
83248;BME280;73465;51.038;7.052;2024-01-25T12:35:54;102082.84;;;11.70;57.16
83248;BME280;73465;51.038;7.052;2024-01-25T12:38:23;102083.31;;;11.53;57.67
83248;BME280;73465;51.038;7.052;2024-01-25T12:40:49;102074.16;;;11.65;57.22
83248;BME280;73465;51.038;7.052;2024-01-25T12:43:15;102082.94;;;10.99;58.55
83248;BME280;73465;51.038;7.052;2024-01-25T12:45:41;102083.13;;;10.91;58.39
83248;BME280;73465;51.038;7.052;2024-01-25T12:48:07;102079.19;;;11.08;58.61
83248;BME280;73465;51.038;7.052;2024-01-25T12:50:34;102066.91;;;11.08;58.04
83248;BME280;73465;51.038;7.052;2024-01-25T12:53:00;102088.13;;;11.37;57.60
83248;BME280;73465;51.038;7.052;2024-01-25T12:55:27;102074.00;;;11.05;58.51